createdAt,value
2022-11-28T00:00:07.081Z,93.81
2022-11-28T00:05:08.006Z,93.88
2022-11-28T00:10:02.127Z,94.08
2022-11-28T00:14:56.040Z,93.97
2022-11-28T00:19:50.658Z,94.38
2022-11-28T00:24:46.252Z,94.42
2022-11-28T00:29:40.328Z,94.29
2022-11-28T00:34:34.848Z,94.30
2022-11-28T00:39:29.760Z,94.04
2022-11-28T00:44:23.140Z,94.23
2022-11-28T00:49:16.530Z,94.09
2022-11-28T00:54:09.928Z,94.31
2022-11-28T00:59:05.169Z,94.49
2022-11-28T01:04:26.527Z,94.45
2022-11-28T01:09:24.473Z,94.34
2022-11-28T01:14:22.439Z,94.72
2022-11-28T01:19:16.419Z,94.77
2022-11-28T01:24:10.324Z,94.94
2022-11-28T01:29:03.920Z,94.85
2022-11-28T01:33:59.783Z,94.63
2022-11-28T01:38:55.872Z,94.90
2022-11-28T01:44:07.393Z,95.00
2022-11-28T01:49:24.700Z,94.72
2022-11-28T01:54:20.166Z,94.89
2022-11-28T01:59:16.601Z,94.96
2022-11-28T02:04:14.803Z,95.21
2022-11-28T02:09:11.456Z,94.77
2022-11-28T02:14:15.848Z,94.44
2022-11-28T02:19:36.071Z,94.28
2022-11-28T02:24:56.188Z,93.71
2022-11-28T02:30:21.529Z,92.67
2022-11-28T02:35:23.042Z,92.38
2022-11-28T02:40:23.229Z,91.85
2022-11-28T02:45:28.159Z,91.31
2022-11-28T02:50:29.912Z,91.23
2022-11-28T02:55:23.734Z,91.24
2022-11-28T03:00:31.349Z,91.00
2022-11-28T03:05:31.575Z,90.78
2022-11-28T03:10:34.292Z,90.54
2022-11-28T03:15:38.369Z,90.92
2022-11-28T03:20:47.172Z,90.18
2022-11-28T03:25:51.095Z,90.02
2022-11-28T03:30:54.027Z,89.78
2022-11-28T03:35:55.458Z,89.47
2022-11-28T03:40:52.624Z,89.23
2022-11-28T03:45:58.394Z,89.39
2022-11-28T03:51:07.439Z,89.61
2022-11-28T03:56:10.792Z,89.72
2022-11-28T04:01:11.394Z,89.97
2022-11-28T04:06:08.883Z,88.75
2022-11-28T04:11:08.938Z,89.43
2022-11-28T04:16:10.849Z,89.25
2022-11-28T04:21:14.362Z,89.15
2022-11-28T04:26:17.994Z,89.54
2022-11-28T04:31:12.462Z,89.44
2022-11-28T04:36:12.091Z,89.29
2022-11-28T04:41:13.309Z,89.32
2022-11-28T04:46:11.432Z,89.42
2022-11-28T04:51:17.577Z,89.45
2022-11-28T04:56:20.185Z,89.11
2022-11-28T05:01:20.767Z,88.88
2022-11-28T05:06:34.044Z,88.03
2022-11-28T05:11:29.800Z,88.24
2022-11-28T05:16:24.155Z,87.30
2022-11-28T05:21:45.267Z,87.29
2022-11-28T05:26:51.510Z,87.40
2022-11-28T05:31:50.743Z,88.42
2022-11-28T05:36:47.988Z,88.26
2022-11-28T05:41:44.429Z,88.56
2022-11-28T05:46:38.033Z,89.16
2022-11-28T05:51:31.616Z,88.70
2022-11-28T05:56:26.640Z,88.37
2022-11-28T06:01:22.598Z,88.52
2022-11-28T06:06:17.844Z,88.81
2022-11-28T06:11:12.409Z,88.37
2022-11-28T06:16:11.717Z,88.55
2022-11-28T06:21:08.946Z,88.45
2022-11-28T06:26:06.989Z,88.51
2022-11-28T06:31:00.620Z,87.09
2022-11-28T06:36:00.453Z,86.77
2022-11-28T06:40:57.640Z,86.57
2022-11-28T06:45:50.865Z,86.67
2022-11-28T06:50:44.200Z,86.38
2022-11-28T06:55:38.975Z,86.52
2022-11-28T07:00:32.882Z,86.55
2022-11-28T07:05:27.881Z,86.81
2022-11-28T07:10:21.321Z,86.41
2022-11-28T07:15:16.109Z,86.07
2022-11-28T07:20:10.994Z,86.04
2022-11-28T07:25:06.749Z,85.83
2022-11-28T07:30:02.076Z,85.80
2022-11-28T07:34:56.694Z,86.23
2022-11-28T07:39:51.871Z,85.88
2022-11-28T07:44:45.325Z,86.14
2022-11-28T07:49:41.406Z,85.24
2022-11-28T07:54:36.443Z,85.44
2022-11-28T07:59:29.899Z,84.87
2022-11-28T08:04:23.228Z,84.55
2022-11-28T08:09:16.578Z,84.97
2022-11-28T08:14:11.643Z,84.93
2022-11-28T08:19:05.317Z,84.78
2022-11-28T08:24:00.947Z,84.78
2022-11-28T08:28:54.886Z,84.57
2022-11-28T08:33:51.185Z,84.42
2022-11-28T08:39:02.987Z,83.60
2022-11-28T08:43:59.549Z,83.01
2022-11-28T08:48:54.224Z,83.36
2022-11-28T08:53:49.407Z,84.41
2022-11-28T08:58:42.777Z,84.41
2022-11-28T09:03:35.997Z,83.34
2022-11-28T09:08:30.685Z,82.88
2022-11-28T09:13:24.108Z,82.38
2022-11-28T09:18:18.290Z,82.67
2022-11-28T09:23:11.880Z,83.07
2022-11-28T09:28:06.827Z,82.83
2022-11-28T09:33:00.283Z,82.61
2022-11-28T09:37:53.436Z,82.31
2022-11-28T09:42:47.206Z,80.99
2022-11-28T09:47:44.140Z,80.67
2022-11-28T09:52:44.458Z,81.27
2022-11-28T09:57:41.810Z,80.34
2022-11-28T10:02:44.032Z,80.45
2022-11-28T10:07:53.703Z,80.22
2022-11-28T10:12:58.025Z,79.50
2022-11-28T10:17:58.935Z,78.27
2022-11-28T10:22:58.509Z,77.54
2022-11-28T10:27:52.441Z,76.69
2022-11-28T10:32:53.456Z,77.23
2022-11-28T10:37:46.904Z,76.89
2022-11-28T10:42:46.530Z,75.87
2022-11-28T10:47:54.547Z,74.61
2022-11-28T10:52:53.826Z,75.71
2022-11-28T10:57:57.872Z,75.42
2022-11-28T11:02:52.590Z,74.50
2022-11-28T11:07:51.370Z,73.98
2022-11-28T11:12:45.603Z,73.94
2022-11-28T11:17:40.146Z,74.82
2022-11-28T11:22:33.713Z,74.81
2022-11-28T11:27:27.058Z,74.45
2022-11-28T11:32:24.878Z,74.77
2022-11-28T11:37:38.086Z,74.49
2022-11-28T11:42:32.642Z,74.31
2022-11-28T11:47:42.470Z,73.40
2022-11-28T11:52:37.034Z,73.91
2022-11-28T11:57:35.182Z,74.60
2022-11-28T12:02:35.393Z,73.26
2022-11-28T12:07:34.890Z,72.76
2022-11-28T12:12:30.953Z,72.89
2022-11-28T12:17:50.089Z,74.19
2022-11-28T12:22:57.253Z,75.14
2022-11-28T12:28:03.117Z,76.00
2022-11-28T12:33:12.897Z,75.70
2022-11-28T12:38:20.349Z,75.68
2022-11-28T12:43:29.365Z,75.32
2022-11-28T12:48:42.476Z,75.12
2022-11-28T12:54:00.436Z,75.12
2022-11-28T12:59:02.096Z,75.18
2022-11-28T13:04:06.533Z,74.83
2022-11-28T13:09:16.414Z,74.25
2022-11-28T13:14:21.519Z,74.29
2022-11-28T13:19:29.951Z,74.48
2022-11-28T13:24:31.388Z,74.92
2022-11-28T13:29:33.808Z,75.35
2022-11-28T13:34:27.941Z,75.82
2022-11-28T13:39:33.263Z,74.95
2022-11-28T13:44:36.696Z,74.86
2022-11-28T13:49:30.685Z,74.58
2022-11-28T13:54:48.879Z,74.31
2022-11-28T13:59:50.538Z,73.46
2022-11-28T14:04:45.609Z,74.13
2022-11-28T14:09:53.332Z,73.88
2022-11-28T14:15:09.993Z,73.30
2022-11-28T14:20:16.472Z,73.03
2022-11-28T14:25:18.171Z,73.07
2022-11-28T14:30:26.010Z,73.25
2022-11-28T14:35:57.885Z,73.65
2022-11-28T14:41:02.426Z,73.78
2022-11-28T14:46:34.910Z,73.86
2022-11-28T14:52:15.801Z,74.29
2022-11-28T14:57:18.203Z,74.71
2022-11-28T15:02:46.285Z,75.02
2022-11-28T15:07:55.619Z,75.72
2022-11-28T15:13:04.431Z,75.90
2022-11-28T15:18:03.650Z,75.93
2022-11-28T15:22:57.210Z,75.87
2022-11-28T15:27:55.767Z,74.97
2022-11-28T15:32:52.007Z,75.57
2022-11-28T15:37:50.947Z,75.94
2022-11-28T15:42:45.228Z,75.95
2022-11-28T15:47:39.772Z,75.50
2022-11-28T15:52:36.373Z,75.96
2022-11-28T15:57:33.771Z,76.85
2022-11-28T16:02:40.534Z,77.34
2022-11-28T16:07:42.925Z,76.87
2022-11-28T16:12:36.511Z,77.79
2022-11-28T16:17:35.756Z,78.99
2022-11-28T16:22:35.377Z,79.79
2022-11-28T16:27:36.207Z,80.08
2022-11-28T16:32:44.015Z,80.52
2022-11-28T16:37:39.410Z,80.83
2022-11-28T16:42:41.709Z,81.60
2022-11-28T16:47:37.240Z,82.19
2022-11-28T16:52:57.934Z,82.84
2022-11-28T16:58:03.876Z,82.92
2022-11-28T17:02:58.789Z,83.30
2022-11-28T17:07:56.332Z,83.52
2022-11-28T17:12:57.876Z,83.65
2022-11-28T17:17:52.960Z,83.95
2022-11-28T17:22:56.495Z,83.78
2022-11-28T17:28:00.763Z,84.18
2022-11-28T17:32:55.421Z,84.17
2022-11-28T17:37:48.905Z,84.53
2022-11-28T17:42:44.423Z,85.55
2022-11-28T17:47:38.133Z,85.88
2022-11-28T17:52:33.749Z,86.44
2022-11-28T17:57:27.168Z,86.17
2022-11-28T18:02:20.525Z,86.33
2022-11-28T18:07:16.306Z,85.94
2022-11-28T18:12:11.229Z,85.47
2022-11-28T18:17:04.604Z,84.90
2022-11-28T18:21:57.884Z,85.34
2022-11-28T18:26:51.497Z,85.71
2022-11-28T18:31:47.172Z,86.32
2022-11-28T18:36:41.756Z,86.97
2022-11-28T18:41:36.274Z,86.87
2022-11-28T18:46:32.449Z,86.99
2022-11-28T18:51:31.903Z,86.94
2022-11-28T18:56:26.002Z,87.18
2022-11-28T19:01:22.282Z,87.22
2022-11-28T19:06:15.801Z,87.95
2022-11-28T19:11:15.090Z,88.29
2022-11-28T19:16:14.566Z,88.59
2022-11-28T19:21:08.683Z,89.24
2022-11-28T19:26:03.196Z,88.91
2022-11-28T19:31:00.664Z,89.05
2022-11-28T19:35:57.221Z,88.68
2022-11-28T19:40:52.752Z,88.24
2022-11-28T19:45:54.476Z,87.56
2022-11-28T19:50:51.102Z,87.63
2022-11-28T19:55:47.900Z,88.23
2022-11-28T20:00:43.800Z,88.14
2022-11-28T20:05:40.738Z,87.76
2022-11-28T20:10:39.001Z,87.90
2022-11-28T20:15:37.491Z,87.66
2022-11-28T20:20:32.249Z,87.71
2022-11-28T20:25:25.936Z,87.90
2022-11-28T20:30:21.227Z,87.92
2022-11-28T20:35:16.344Z,87.92
2022-11-28T20:40:13.696Z,88.08
2022-11-28T20:45:08.425Z,88.27
2022-11-28T20:50:03.527Z,87.74
2022-11-28T20:54:58.150Z,87.44
2022-11-28T20:59:55.400Z,87.17
2022-11-28T21:04:51.812Z,86.98
2022-11-28T21:10:03.985Z,86.67
2022-11-28T21:15:00.826Z,86.41
2022-11-28T21:20:00.477Z,85.65
2022-11-28T21:24:58.805Z,85.60
2022-11-28T21:29:55.706Z,85.79
2022-11-28T21:34:51.348Z,85.61
2022-11-28T21:46:23.726Z,85.63
2022-11-28T21:51:18.480Z,86.46
2022-11-28T21:56:13.046Z,85.70
2022-11-28T22:01:08.484Z,85.25
2022-11-28T22:06:09.530Z,84.28
2022-11-28T22:11:04.992Z,83.62
2022-11-28T22:15:58.449Z,83.08
2022-11-28T22:20:53.190Z,81.88
2022-11-28T22:25:53.394Z,81.93
2022-11-28T22:30:47.208Z,81.95
2022-11-28T22:35:40.655Z,82.57
2022-11-28T22:40:34.038Z,83.01
2022-11-28T22:45:28.690Z,83.65
2022-11-28T22:50:25.130Z,82.76
2022-11-28T22:55:19.072Z,82.02
2022-11-28T23:00:13.731Z,81.51
2022-11-28T23:05:09.258Z,82.69
2022-11-28T23:10:02.993Z,83.40
2022-11-28T23:14:56.299Z,84.03
2022-11-28T23:19:50.486Z,84.62
2022-11-28T23:24:47.619Z,84.95
2022-11-28T23:29:41.132Z,85.08
2022-11-28T23:34:36.968Z,85.23
2022-11-28T23:39:30.326Z,85.45
2022-11-28T23:44:32.320Z,85.10
2022-11-28T23:49:25.542Z,85.21
2022-11-28T23:54:19.060Z,85.06
2022-11-28T23:59:16.454Z,85.50
